Terminal Aerodrome Forecast
Issued by NWS Louisville, KY

Home | Current Version | Previous Version | Text Only | Print | Product List | Glossary On
Versions: 1 2 3 4 5 6 7 8 9 10 11 12 13 14 15 16 17 18 19 20
000
FTUS43 KLMK 190207 AAA
TAFBWG
TAF AMD
KBWG 190207Z 1902/1924 13005KT P6SM SCT250
     FM190500 19010KT P6SM VCSH OVC022 WS020/20035KT
      TEMPO 1905/1909 3SM -SHRA BKN008
     FM190900 19013KT P6SM VCSH OVC008 WS020/21040KT
     FM191100 19013G19KT P6SM OVC011 WS020/20041KT
     FM191400 19017G22KT P6SM OVC025
     FM191800 20016G23KT P6SM SCT025 BKN040=

USA.gov is the U.S. government's official web portal to all federal, state and local government web resources and services.